Cottonwood, Idaho
Current Conditions -  °F | °C
As of 3:55 PM on Wednesday 26 Nov 2014 (Local Time) from KGIC Reporting Station
Clear Clear  
Wind Chill:   Ceiling: Unl
Heat Index:   Visibility: 10mi
Dew Point:   Wind: 6mph
Humidity: 68%   Direction: 360°N
Pressure: 30.17"   Gusts: NA
Location:  46.05°N, 116.35°W
Report Text: KGIC 262355Z AUTO 36005KT 10SM CLR 09/03 A3017 RMK AO1 T00900033 10105 21002
Loading
Personal Weather Stations






























Interactive Weather Map New forecast layout! Learn more

10-Day Weather Forecast

Advertisements
Track Severe Weather on mobile